Time;durP1;ratioP1;P1;durP2;ratioP2;P2;SDS_P1;SDS_P2;PMS_P1;PMS_P2;Temp;Humidity;BMP_temperature;BMP_pressure;BME280_temperature;BME280_humidity;BME280_pressure;Samples;Min_cycle;Max_cycle;Signal;HPM_P1;HPM_P2
2023/01/21 00:02:03;;;;;;;1.25;0.47;;;;;;;11.75;34.44;102440.78;5052351;28;20032;-59
2023/01/21 00:04:29;;;;;;;1.38;0.40;;;;;;;11.75;34.85;102434.56;5052442;28;20035;-59
2023/01/21 00:06:56;;;;;;;0.20;0.20;;;;;;;11.72;34.46;102433.09;5052605;28;20024;-59
2023/01/21 00:09:22;;;;;;;0.30;0.20;;;;;;;11.65;34.78;102440.13;5052039;28;20021;-59
2023/01/21 00:11:48;;;;;;;0.40;0.40;;;;;;;11.67;35.04;102432.78;5052288;28;20478;-59
2023/01/21 00:14:14;;;;;;;0.43;0.30;;;;;;;11.63;35.63;102444.84;5052295;28;20079;-59
2023/01/21 00:16:40;;;;;;;0.47;0.20;;;;;;;11.59;35.31;102447.03;5052290;28;20029;-59
2023/01/21 00:19:07;;;;;;;0.65;0.20;;;;;;;11.39;35.68;102448.47;5052328;28;20036;-59
2023/01/21 00:21:33;;;;;;;1.15;0.40;;;;;;;11.49;36.17;102442.88;5052472;28;20017;-59
2023/01/21 00:23:59;;;;;;;1.52;0.82;;;;;;;11.43;35.99;102444.41;5049366;28;20017;-57
2023/01/21 00:26:25;;;;;;;1.52;0.77;;;;;;;11.64;35.92;102443.84;5052204;28;20108;-57
2023/01/21 00:28:51;;;;;;;0.65;0.40;;;;;;;11.45;36.44;102447.78;5052106;28;20021;-60
2023/01/21 00:31:18;;;;;;;2.33;1.98;;;;;;;11.40;35.23;102443.94;5052452;28;20526;-61
2023/01/21 00:33:44;;;;;;;3.63;2.22;;;;;;;11.59;35.15;102456.94;5051815;28;20033;-61
2023/01/21 00:36:13;;;;;;;1.48;0.47;;;;;;;11.27;35.89;102450.69;5030673;28;20017;-60
2023/01/21 00:38:39;;;;;;;2.13;0.47;;;;;;;11.07;36.69;102450.19;5032153;28;20104;-59
2023/01/21 00:41:09;;;;;;;0.28;0.20;;;;;;;11.14;36.46;102454.88;5049879;28;20486;-58
2023/01/21 00:43:35;;;;;;;1.00;0.60;;;;;;;11.00;37.00;102465.28;5051492;28;20087;-60
2023/01/21 00:46:02;;;;;;;0.68;0.52;;;;;;;10.99;36.96;102468.13;5043697;28;20116;-61
2023/01/21 00:48:28;;;;;;;0.25;0.20;;;;;;;10.80;36.55;102470.13;5049611;28;20022;-61
2023/01/21 00:50:59;;;;;;;1.83;0.90;;;;;;;10.87;36.68;102469.47;5051670;28;20049;-59
2023/01/21 00:53:32;;;;;;;0.82;0.60;;;;;;;11.02;37.21;102465.94;5050116;28;20048;-60
2023/01/21 00:56:04;;;;;;;0.95;0.30;;;;;;;11.05;37.13;102462.94;5051434;28;20081;-59
2023/01/21 00:58:30;;;;;;;0.38;0.38;;;;;;;11.22;36.51;102466.44;5049862;28;20745;-58
2023/01/21 01:01:00;;;;;;;0.47;0.20;;;;;;;11.23;36.45;102465.41;5051891;28;20029;-59
2023/01/21 01:03:26;;;;;;;0.50;0.50;;;;;;;11.22;37.19;102465.59;5050672;28;20041;-59
2023/01/21 01:05:53;;;;;;;0.22;0.20;;;;;;;11.28;37.11;102468.44;5051452;28;20029;-59
2023/01/21 01:08:19;;;;;;;1.20;0.60;;;;;;;11.13;37.28;102469.28;5051295;28;20112;-59
2023/01/21 01:10:45;;;;;;;1.17;0.80;;;;;;;11.17;37.77;102460.75;5049834;28;20116;-58
2023/01/21 01:13:11;;;;;;;2.75;1.40;;;;;;;11.08;37.55;102462.59;5051453;28;20152;-60
2023/01/21 01:15:38;;;;;;;2.00;0.88;;;;;;;11.12;37.66;102462.25;5049273;28;20086;-60
2023/01/21 01:18:04;;;;;;;0.43;0.30;;;;;;;10.90;37.77;102464.63;5051420;28;20032;-60
2023/01/21 01:20:30;;;;;;;0.68;0.50;;;;;;;10.64;38.57;102461.25;5047750;28;20036;-60
2023/01/21 01:22:56;;;;;;;2.10;0.70;;;;;;;10.50;39.35;102465.47;5051513;28;20029;-59
2023/01/21 01:25:23;;;;;;;0.90;0.32;;;;;;;10.32;38.82;102471.75;5047210;28;20017;-59
2023/01/21 01:27:49;;;;;;;0.70;0.30;;;;;;;10.31;38.57;102467.41;5049658;28;20033;-59
2023/01/21 01:30:15;;;;;;;1.40;0.30;;;;;;;10.42;38.94;102463.59;5050696;28;20048;-59
2023/01/21 01:32:42;;;;;;;0.85;0.30;;;;;;;10.18;39.15;102463.53;5050924;28;20033;-59
2023/01/21 01:35:08;;;;;;;2.45;0.52;;;;;;;10.25;39.47;102461.88;5050487;28;20029;-51
2023/01/21 01:37:34;;;;;;;2.22;0.60;;;;;;;10.29;39.54;102458.72;5039026;28;20025;-50
2023/01/21 01:40:01;;;;;;;1.77;0.75;;;;;;;10.47;38.90;102465.78;5050797;28;20386;-53
2023/01/21 01:42:27;;;;;;;3.03;0.88;;;;;;;10.43;39.09;102467.94;5051119;28;20028;-52
2023/01/21 01:45:04;;;;;;;1.95;0.68;;;;;;;10.14;39.71;102471.03;5034297;28;20034;-51
2023/01/21 01:47:41;;;;;;;0.98;0.60;;;;;;;10.20;38.62;102466.84;5036193;28;20033;-51
2023/01/21 01:50:12;;;;;;;1.30;0.55;;;;;;;10.14;38.84;102468.34;5050914;28;20471;-50
2023/01/21 01:52:39;;;;;;;1.52;0.75;;;;;;;9.98;39.78;102479.00;5050904;28;20091;-50
2023/01/21 01:55:07;;;;;;;0.93;0.90;;;;;;;10.18;39.07;102479.56;5050967;28;20025;-50
2023/01/21 01:57:39;;;;;;;1.23;0.70;;;;;;;10.34;39.95;102478.81;5051408;28;20021;-53
2023/01/21 02:00:07;;;;;;;0.93;0.30;;;;;;;9.85;40.60;102478.63;5051228;28;20517;-53
2023/01/21 02:02:35;;;;;;;0.40;0.30;;;;;;;9.91;39.16;102481.50;5050631;28;20025;-53
2023/01/21 02:05:07;;;;;;;0.25;0.20;;;;;;;9.64;39.93;102482.53;5050475;28;20040;-51
2023/01/21 02:07:44;;;;;;;1.77;0.47;;;;;;;9.90;39.82;102481.66;5052200;28;20028;-54
2023/01/21 02:10:13;;;;;;;1.23;0.30;;;;;;;9.84;40.22;102491.16;5054524;28;20052;-49
2023/01/21 02:12:43;;;;;;;0.30;0.17;;;;;;;9.63;39.43;102490.72;5054622;28;20360;-50
2023/01/21 02:15:10;;;;;;;0.50;0.20;;;;;;;9.55;39.72;102494.22;5054715;28;20019;-49
2023/01/21 02:18:01;;;;;;;0.80;0.30;;;;;;;9.71;39.59;102494.25;5054590;28;20032;-50
2023/01/21 02:21:02;;;;;;;0.70;0.32;;;;;;;9.48;39.66;102498.50;5055068;28;20095;-51
2023/01/21 02:23:40;;;;;;;0.38;0.30;;;;;;;9.38;39.58;102501.25;5030870;28;20055;-52
2023/01/21 02:26:36;;;;;;;0.75;0.20;;;;;;;9.29;39.08;102502.22;5054413;28;20053;-52
2023/01/21 02:29:13;;;;;;;0.77;0.30;;;;;;;9.10;40.01;102500.56;5054460;28;20024;-52
2023/01/21 02:31:45;;;;;;;1.17;0.30;;;;;;;9.32;40.24;102504.56;5054460;28;20045;-52
2023/01/21 02:34:42;;;;;;;0.47;0.30;;;;;;;9.39;39.68;102512.81;5053731;28;20426;-49
2023/01/21 02:37:17;;;;;;;0.30;0.20;;;;;;;9.39;39.39;102512.81;5046303;28;20049;-51
2023/01/21 02:39:44;;;;;;;0.30;0.25;;;;;;;9.24;39.22;102518.72;5053818;28;20025;-52
2023/01/21 02:42:27;;;;;;;0.25;0.25;;;;;;;9.32;39.75;102511.75;5054821;28;20032;-49
2023/01/21 02:45:01;;;;;;;0.45;0.25;;;;;;;9.30;39.75;102519.09;5054018;28;20388;-50
2023/01/21 02:47:46;;;;;;;0.52;0.30;;;;;;;9.40;39.93;102525.19;5053946;28;20029;-49
2023/01/21 02:50:22;;;;;;;2.20;0.38;;;;;;;9.28;40.20;102532.63;5053365;28;20053;-50
2023/01/21 02:52:59;;;;;;;0.43;0.30;;;;;;;9.33;39.95;102532.13;5054174;28;20052;-50
2023/01/21 02:55:45;;;;;;;1.55;0.60;;;;;;;9.36;39.75;102543.34;5053566;28;20086;-50
2023/01/21 02:58:15;;;;;;;1.45;0.47;;;;;;;9.22;39.82;102544.75;5053581;28;20037;-53
2023/01/21 03:00:55;;;;;;;0.82;0.30;;;;;;;9.29;40.17;102544.97;5053874;28;20107;-47
2023/01/21 03:03:45;;;;;;;0.95;0.55;;;;;;;9.31;39.70;102548.31;5033786;28;20038;-48
2023/01/21 03:06:34;;;;;;;2.33;1.48;;;;;;;9.16;40.09;102542.72;5051047;28;20024;-48
2023/01/21 03:09:28;;;;;;;2.47;1.40;;;;;;;9.10;40.69;102551.31;5053369;28;20025;-48
2023/01/21 03:12:15;;;;;;;1.63;0.63;;;;;;;9.20;40.67;102540.56;5053353;28;20040;-50
2023/01/21 03:17:53;;;;;;;1.63;0.50;;;;;;;9.08;40.67;102539.97;5014327;28;20068;-51
2023/01/21 03:20:29;;;;;;;0.52;0.50;;;;;;;8.99;40.62;102536.41;5033497;28;20121;-53
2023/01/21 03:23:15;;;;;;;;;;;;;;;8.99;41.25;102539.06;5033892;28;20369;-51
2023/01/21 03:25:42;;;;;;;0.80;0.70;;;;;;;9.19;40.92;102537.03;5044541;28;19971;-48
2023/01/21 03:28:11;;;;;;;1.85;0.60;;;;;;;9.02;41.35;102540.59;5053226;28;20081;-51
2023/01/21 03:30:41;;;;;;;0.60;0.60;;;;;;;9.19;41.06;102547.72;5052806;28;20037;-48
2023/01/21 03:33:11;;;;;;;2.13;0.80;;;;;;;9.18;40.41;102542.56;5040231;28;20451;-52
2023/01/21 03:35:42;;;;;;;0.80;0.63;;;;;;;9.11;41.02;102553.03;5033098;28;20036;-50
2023/01/21 03:38:21;;;;;;;2.17;1.10;;;;;;;9.25;43.93;102552.44;5033412;28;20029;-49
2023/01/21 03:41:00;;;;;;;1.13;0.70;;;;;;;9.21;43.57;102561.75;5033086;28;20030;-50
2023/01/21 03:43:27;;;;;;;1.73;0.93;;;;;;;9.15;44.74;102565.06;5046678;28;20025;-49
2023/01/21 03:46:13;;;;;;;2.42;0.98;;;;;;;9.15;46.22;102558.88;5052868;28;20032;-48
2023/01/21 03:48:51;;;;;;;2.75;1.08;;;;;;;9.10;46.75;102558.50;5036387;28;20026;-50
2023/01/21 03:51:45;;;;;;;1.38;1.02;;;;;;;9.03;46.96;102560.13;5051469;28;20494;-48
2023/01/21 03:54:11;;;;;;;1.75;1.30;;;;;;;8.88;47.25;102568.69;5048701;28;20368;-50
2023/01/21 03:56:38;;;;;;;2.80;1.50;;;;;;;8.92;47.88;102571.88;5032851;28;20060;-49
2023/01/21 03:59:04;;;;;;;1.77;1.48;;;;;;;8.89;48.45;102561.50;5033137;28;20048;-52
2023/01/21 04:01:30;;;;;;;3.97;1.95;;;;;;;8.72;48.82;102571.19;5032967;28;20060;-51
2023/01/21 04:03:56;;;;;;;2.33;1.60;;;;;;;8.64;49.20;102573.75;5041007;28;20107;-51
2023/01/21 04:06:23;;;;;;;1.85;1.33;;;;;;;8.62;49.86;102576.59;5052743;28;20033;-50
2023/01/21 04:08:49;;;;;;;2.13;1.38;;;;;;;8.59;49.70;102570.72;5052720;28;20475;-52
2023/01/21 04:11:16;;;;;;;2.20;1.58;;;;;;;8.48;50.24;102577.09;5052675;28;20052;-52
2023/01/21 04:13:42;;;;;;;3.22;1.90;;;;;;;8.31;51.49;102572.53;5052522;28;20072;-49
2023/01/21 04:16:09;;;;;;;2.38;1.83;;;;;;;8.39;51.28;102573.50;5052253;28;20121;-50
2023/01/21 04:18:35;;;;;;;4.32;2.13;;;;;;;8.32;51.54;102575.03;5050161;28;20395;-50
2023/01/21 04:21:01;;;;;;;3.50;1.98;;;;;;;8.35;51.63;102581.91;5032380;28;20022;-49
2023/01/21 04:23:27;;;;;;;4.07;2.13;;;;;;;8.15;51.64;102582.00;5049924;28;20041;-48
2023/01/21 04:25:54;;;;;;;3.58;2.00;;;;;;;8.06;51.91;102574.91;5052513;28;20391;-51
2023/01/21 04:28:20;;;;;;;4.00;2.10;;;;;;;8.17;52.25;102581.88;5032756;28;20029;-52
2023/01/21 04:30:47;;;;;;;4.78;2.13;;;;;;;7.74;53.77;102583.28;5050116;28;20060;-49
2023/01/21 04:33:13;;;;;;;3.35;1.90;;;;;;;7.98;53.27;102579.28;5047936;28;20146;-51
2023/01/21 04:35:40;;;;;;;3.63;2.10;;;;;;;8.07;52.92;102586.41;5035288;28;20025;-51
2023/01/21 04:38:06;;;;;;;9.60;2.90;;;;;;;7.74;53.71;102585.13;5032069;28;20429;-51
2023/01/21 04:40:32;;;;;;;4.18;1.85;;;;;;;7.78;54.58;102586.50;5043706;28;20090;-51
2023/01/21 04:42:58;;;;;;;3.33;2.05;;;;;;;7.70;54.35;102589.03;5051518;28;20029;-49
2023/01/21 04:45:25;;;;;;;6.15;2.47;;;;;;;7.24;56.03;102596.00;5050194;28;20029;-49
2023/01/21 04:47:51;;;;;;;3.78;2.78;;;;;;;7.10;56.42;102587.44;5050416;28;20032;-50
2023/01/21 04:50:18;;;;;;;4.10;1.88;;;;;;;7.24;56.30;102593.34;5050049;28;20541;-50
2023/01/21 04:52:44;;;;;;;2.95;2.13;;;;;;;7.28;56.04;102592.06;5033775;28;20037;-48
2023/01/21 04:55:10;;;;;;;3.40;2.20;;;;;;;7.21;56.57;102601.59;5043096;28;20499;-49
2023/01/21 04:57:37;;;;;;;3.47;2.10;;;;;;;7.20;56.59;102597.25;5049959;28;20036;-48
2023/01/21 05:00:05;;;;;;;3.72;2.10;;;;;;;7.01;56.89;102598.94;5050296;28;20033;-49
2023/01/21 05:02:32;;;;;;;3.10;1.80;;;;;;;6.87;57.41;102597.53;5051231;28;20032;-48
2023/01/21 05:04:58;;;;;;;2.60;1.60;;;;;;;6.90;57.47;102596.41;5049957;28;20033;-50
2023/01/21 05:07:24;;;;;;;3.03;2.05;;;;;;;6.98;57.73;102604.53;5051608;28;20024;-50
2023/01/21 05:09:51;;;;;;;3.05;2.22;;;;;;;6.97;57.59;102608.19;5052035;28;20032;-50
2023/01/21 05:12:17;;;;;;;2.50;2.25;;;;;;;6.85;58.22;102614.63;5050238;28;20040;-48
2023/01/21 05:14:43;;;;;;;4.13;2.47;;;;;;;6.96;57.94;102613.66;5050420;28;20029;-47
2023/01/21 05:17:10;;;;;;;3.33;2.97;;;;;;;6.93;57.89;102617.41;5051147;28;20033;-51
2023/01/21 05:19:36;;;;;;;3.22;2.22;;;;;;;6.73;58.23;102615.72;5049513;28;20049;-50
2023/01/21 05:22:02;;;;;;;6.40;2.83;;;;;;;6.58;58.89;102615.25;5051250;28;20103;-47
2023/01/21 05:24:28;;;;;;;3.92;2.70;;;;;;;6.55;58.98;102613.72;5049139;28;20037;-47
2023/01/21 05:26:54;;;;;;;3.80;2.20;;;;;;;6.50;59.30;102612.47;5051067;28;20021;-48
2023/01/21 05:29:21;;;;;;;3.58;2.15;;;;;;;6.45;59.28;102623.50;5033340;28;20599;-47
2023/01/21 05:31:47;;;;;;;2.50;1.88;;;;;;;6.48;59.13;102622.38;5033572;28;20112;-49
2023/01/21 05:34:13;;;;;;;3.58;1.80;;;;;;;6.52;59.24;102627.28;5050863;28;20060;-48
2023/01/21 05:36:39;;;;;;;2.08;1.75;;;;;;;6.42;59.10;102629.06;5049945;28;20025;-48
2023/01/21 05:39:06;;;;;;;3.45;2.10;;;;;;;6.50;59.29;102631.91;5051084;28;20028;-47
2023/01/21 05:41:32;;;;;;;2.25;1.85;;;;;;;6.48;59.13;102631.19;5051356;28;20037;-47
2023/01/21 05:43:59;;;;;;;2.95;1.90;;;;;;;6.39;59.05;102632.03;5049972;28;20043;-48
2023/01/21 05:46:25;;;;;;;2.45;1.60;;;;;;;6.32;59.54;102628.19;5054894;28;20040;-49
2023/01/21 05:48:51;;;;;;;5.82;2.10;;;;;;;6.33;59.58;102630.75;5053229;28;20033;-47
2023/01/21 05:51:17;;;;;;;3.75;1.70;;;;;;;6.07;60.16;102632.16;5055014;28;20052;-49
2023/01/21 05:53:45;;;;;;;3.22;2.10;;;;;;;6.04;60.21;102630.59;5053892;28;20063;-47
2023/01/21 05:56:11;;;;;;;2.28;1.73;;;;;;;6.13;60.11;102631.63;5053765;28;20104;-49
2023/01/21 05:58:37;;;;;;;2.92;1.88;;;;;;;6.23;60.09;102634.34;5053793;28;20057;-47
2023/01/21 06:01:04;;;;;;;3.30;2.00;;;;;;;6.30;59.95;102635.47;5053532;28;20033;-48
2023/01/21 06:03:30;;;;;;;2.72;1.95;;;;;;;6.25;60.12;102630.56;5054433;28;20025;-52
2023/01/21 06:05:56;;;;;;;3.60;2.47;;;;;;;6.07;60.41;102635.66;5053552;28;20360;-51
2023/01/21 06:08:22;;;;;;;3.75;2.33;;;;;;;6.07;60.29;102638.31;5054614;28;20025;-49
2023/01/21 06:10:48;;;;;;;2.78;2.38;;;;;;;6.01;60.49;102636.19;5053468;28;20032;-50
2023/01/21 06:13:15;;;;;;;4.10;2.38;;;;;;;6.10;60.66;102634.53;5054509;28;20032;-51
2023/01/21 06:15:42;;;;;;;2.97;2.08;;;;;;;5.98;61.21;102640.91;5053227;28;20032;-48
2023/01/21 06:18:08;;;;;;;3.63;2.67;;;;;;;6.06;61.54;102639.28;5054657;28;20483;-48
2023/01/21 06:20:35;;;;;;;3.55;2.42;;;;;;;5.96;61.54;102643.72;5053224;28;20061;-48
2023/01/21 06:23:02;;;;;;;4.38;2.08;;;;;;;5.83;61.93;102637.75;5054289;28;20028;-50
2023/01/21 06:25:29;;;;;;;3.45;2.22;;;;;;;5.79;62.16;102642.47;5052957;28;20025;-48
2023/01/21 06:27:56;;;;;;;3.15;2.22;;;;;;;5.75;62.26;102650.81;5036227;23;20081;-48
2023/01/21 06:30:24;;;;;;;2.47;2.10;;;;;;;5.74;62.17;102652.63;5016298;28;20064;-48
2023/01/21 06:32:51;;;;;;;2.72;1.73;;;;;;;5.75;62.17;102641.03;5032457;28;20032;-51
2023/01/21 06:35:18;;;;;;;3.88;2.35;;;;;;;5.77;62.01;102643.56;5034413;28;20029;-50
2023/01/21 06:37:45;;;;;;;5.90;2.30;;;;;;;5.83;62.04;102641.25;4998034;28;20038;-48
2023/01/21 06:40:12;;;;;;;3.63;2.75;;;;;;;5.97;62.01;102650.72;4995063;28;20032;-48
2023/01/21 06:42:38;;;;;;;5.15;2.90;;;;;;;6.03;61.98;102658.16;5008412;28;20036;-49
2023/01/21 06:45:06;;;;;;;4.40;2.70;;;;;;;5.66;62.43;102659.56;5014287;28;20029;-51
2023/01/21 06:47:32;;;;;;;4.10;2.72;;;;;;;5.51;62.81;102661.72;5009110;28;20069;-51
2023/01/21 06:49:58;;;;;;;3.75;2.97;;;;;;;5.45;63.21;102670.19;5013414;28;20032;-48
2023/01/21 06:52:24;;;;;;;3.30;2.30;;;;;;;5.47;63.28;102674.38;5014340;28;20030;-47
2023/01/21 06:54:50;;;;;;;2.63;2.30;;;;;;;5.34;63.61;102679.03;5013844;28;20025;-50
2023/01/21 06:57:17;;;;;;;2.47;2.25;;;;;;;5.30;63.84;102672.28;5004760;28;20519;-50
2023/01/21 06:59:43;;;;;;;3.35;2.33;;;;;;;5.25;63.95;102669.16;4994500;28;20465;-49
2023/01/21 07:02:12;;;;;;;5.47;2.90;;;;;;;5.46;64.05;102664.75;4994416;28;20022;-49
2023/01/21 07:04:38;;;;;;;3.13;2.42;;;;;;;5.30;64.09;102678.44;4993439;28;20035;-48
2023/01/21 07:07:04;;;;;;;3.85;2.55;;;;;;;5.04;64.50;102679.72;5007989;28;20026;-48
2023/01/21 07:09:30;;;;;;;3.80;2.35;;;;;;;5.14;64.59;102674.53;5023567;28;20081;-49
2023/01/21 07:11:57;;;;;;;3.38;2.47;;;;;;;5.06;64.73;102690.25;5013780;28;20032;-49
2023/01/21 07:14:23;;;;;;;2.30;2.03;;;;;;;5.14;64.93;102682.47;5010931;28;20065;-47
2023/01/21 07:16:49;;;;;;;3.50;2.00;;;;;;;5.08;65.15;102682.97;5013854;28;20018;-48
2023/01/21 07:19:16;;;;;;;2.50;1.88;;;;;;;4.90;65.31;102686.16;5011587;28;20153;-49
2023/01/21 07:21:42;;;;;;;3.30;1.92;;;;;;;4.97;65.29;102692.66;5013725;28;20127;-48
2023/01/21 07:24:08;;;;;;;3.10;2.13;;;;;;;4.83;65.49;102687.63;5011052;28;20026;-48
2023/01/21 07:26:37;;;;;;;4.32;2.42;;;;;;;4.73;65.68;102691.97;5013632;28;20046;-49
2023/01/21 07:29:06;;;;;;;4.75;2.67;;;;;;;4.72;65.33;102682.34;4998070;28;20030;-51
2023/01/21 07:31:33;;;;;;;2.67;2.05;;;;;;;4.78;65.14;102699.59;5009152;28;20061;-49
2023/01/21 07:33:59;;;;;;;4.25;2.00;;;;;;;4.77;65.18;102696.06;5026067;28;20036;-48
2023/01/21 07:36:26;;;;;;;2.80;1.80;;;;;;;4.92;64.99;102696.66;5020197;28;20052;-48
2023/01/21 07:38:53;;;;;;;2.92;1.55;;;;;;;5.02;64.72;102689.63;5033108;28;20029;-49
2023/01/21 07:41:20;;;;;;;2.92;1.90;;;;;;;4.63;65.74;102698.97;4997025;28;20038;-48
2023/01/21 07:43:47;;;;;;;3.20;1.88;;;;;;;4.54;66.33;102695.22;4993491;28;20106;-48
2023/01/21 07:46:18;;;;;;;2.95;2.08;;;;;;;4.53;66.60;102692.72;4993704;28;20026;-48
2023/01/21 07:48:50;;;;;;;2.40;1.90;;;;;;;4.39;66.66;102693.81;4993898;28;20030;-52
2023/01/21 07:51:20;;;;;;;2.17;1.90;;;;;;;4.34;67.19;102696.81;4992658;28;20466;-51
2023/01/21 07:53:47;;;;;;;2.53;1.70;;;;;;;4.29;66.89;102701.63;4993396;28;20519;-49
2023/01/21 07:56:13;;;;;;;2.50;1.65;;;;;;;4.18;67.18;102709.56;4991723;28;20381;-51
2023/01/21 07:58:40;;;;;;;2.25;1.58;;;;;;;4.20;66.98;102716.44;4993474;28;20027;-51
2023/01/21 08:01:08;;;;;;;4.57;2.15;;;;;;;4.21;67.18;102714.63;4992752;28;20038;-51
2023/01/21 08:03:35;;;;;;;2.47;1.58;;;;;;;4.43;67.43;102717.28;5011456;28;20411;-50
2023/01/21 08:06:03;;;;;;;2.63;1.50;;;;;;;4.25;68.31;102716.06;4991890;28;20030;-51
2023/01/21 08:08:30;;;;;;;2.13;1.70;;;;;;;4.24;68.62;102719.69;5009050;28;20022;-52
2023/01/21 08:10:56;;;;;;;2.97;1.73;;;;;;;4.26;68.28;102715.09;5012972;28;20056;-50
2023/01/21 08:13:23;;;;;;;2.58;1.73;;;;;;;4.08;68.72;102727.97;5012797;28;20030;-51
2023/01/21 08:15:50;;;;;;;2.40;1.67;;;;;;;3.68;70.55;102724.84;4994864;28;20041;-50
2023/01/21 08:18:17;;;;;;;3.65;1.70;;;;;;;3.93;70.25;102727.31;4992463;28;20031;-49
2023/01/21 08:20:44;;;;;;;2.10;1.45;;;;;;;3.83;70.46;102733.44;5009227;28;20018;-48
2023/01/21 08:23:10;;;;;;;1.98;1.42;;;;;;;3.54;71.45;102738.25;5012352;28;20022;-49
2023/01/21 08:25:37;;;;;;;2.03;1.70;;;;;;;3.61;71.11;102745.66;5010773;28;20044;-48
2023/01/21 08:28:04;;;;;;;2.33;1.65;;;;;;;3.35;72.27;102734.34;5004934;28;20116;-49
2023/01/21 08:30:30;;;;;;;2.05;1.65;;;;;;;3.27;72.66;102728.75;5003371;28;20057;-48
2023/01/21 08:32:56;;;;;;;10.90;2.05;;;;;;;3.30;72.57;102733.81;5012294;28;20022;-47
2023/01/21 08:35:23;;;;;;;2.05;1.60;;;;;;;3.48;71.27;102736.06;4994366;28;20121;-49
2023/01/21 08:37:49;;;;;;;2.25;1.75;;;;;;;3.51;71.16;102727.91;5002057;28;20034;-48
2023/01/21 08:40:16;;;;;;;2.70;1.60;;;;;;;3.49;71.10;102727.16;5014330;28;20026;-49
2023/01/21 08:42:42;;;;;;;4.72;2.70;;;;;;;3.90;70.09;102729.38;5012477;28;20034;-48
2023/01/21 08:45:09;;;;;;;3.10;2.10;;;;;;;3.71;70.38;102727.25;4992776;28;20054;-48
2023/01/21 08:47:35;;;;;;;3.88;2.38;;;;;;;3.56;70.23;102733.72;4992377;28;20409;-48
2023/01/21 08:50:02;;;;;;;5.05;2.25;;;;;;;3.53;70.76;102728.63;4992367;28;20405;-48
2023/01/21 08:52:28;;;;;;;3.97;2.10;;;;;;;3.37;71.42;102729.75;4996620;28;20527;-48
2023/01/21 08:54:54;;;;;;;3.05;2.00;;;;;;;3.27;72.22;102722.59;5012019;28;20030;-48
2023/01/21 08:57:20;;;;;;;4.43;2.08;;;;;;;3.35;71.86;102723.75;5011161;28;20110;-48
2023/01/21 08:59:47;;;;;;;5.25;2.20;;;;;;;3.83;70.66;102721.06;4992937;28;20031;-48
2023/01/21 09:02:13;;;;;;;2.65;2.45;;;;;;;3.72;70.57;102721.03;4992050;28;20096;-48
2023/01/21 09:04:39;;;;;;;3.55;2.13;;;;;;;3.55;71.05;102722.25;4992224;28;20065;-47
2023/01/21 09:07:05;;;;;;;3.83;2.00;;;;;;;3.74;70.66;102724.41;4992018;28;20056;-47
2023/01/21 09:09:32;;;;;;;2.65;1.85;;;;;;;3.42;71.29;102722.31;5025999;28;20029;-48
2023/01/21 09:11:58;;;;;;;3.55;1.88;;;;;;;3.52;71.28;102722.50;5015848;28;20036;-51
2023/01/21 09:14:25;;;;;;;4.63;2.00;;;;;;;3.27;72.26;102727.91;5012195;28;20025;-48
2023/01/21 09:16:52;;;;;;;3.50;1.52;;;;;;;3.10;73.20;102721.19;5012065;28;20651;-51
2023/01/21 09:19:18;;;;;;;2.58;1.50;;;;;;;3.46;72.16;102730.06;4993844;28;20027;-51
2023/01/21 09:21:47;;;;;;;1.63;1.20;;;;;;;3.22;72.72;102728.25;4991930;28;20026;-48
2023/01/21 09:24:13;;;;;;;1.55;1.20;;;;;;;3.14;73.15;102728.78;5019448;28;20030;-48
2023/01/21 09:26:43;;;;;;;2.17;1.40;;;;;;;3.13;73.20;102723.63;5017967;28;20096;-47
2023/01/21 09:29:10;;;;;;;3.65;1.45;;;;;;;3.32;72.62;102723.97;5009138;28;20030;-48
2023/01/21 09:31:36;;;;;;;2.30;1.38;;;;;;;3.46;72.15;102730.06;5011806;28;20030;-48
2023/01/21 09:34:04;;;;;;;2.35;1.42;;;;;;;3.53;72.26;102726.84;5006349;28;20496;-49
2023/01/21 09:36:33;;;;;;;2.08;1.17;;;;;;;3.36;72.19;102732.53;5011480;28;20021;-49
2023/01/21 09:39:00;;;;;;;1.83;1.10;;;;;;;3.22;72.55;102736.19;5012630;28;20025;-48
2023/01/21 09:41:26;;;;;;;2.75;1.40;;;;;;;3.07;72.77;102742.59;5031334;28;20034;-49
2023/01/21 09:44:02;;;;;;;2.17;1.13;;;;;;;3.01;72.65;102748.31;5008717;28;20396;-48
2023/01/21 09:46:33;;;;;;;3.03;1.15;;;;;;;3.04;72.58;102745.44;5011608;28;20499;-50
2023/01/21 09:49:04;;;;;;;1.63;1.20;;;;;;;2.98;72.36;102748.53;5011187;28;20396;-48
2023/01/21 09:51:48;;;;;;;3.70;1.23;;;;;;;2.97;72.20;102742.41;5011603;28;20476;-49
2023/01/21 09:54:35;;;;;;;2.80;1.45;;;;;;;3.27;72.44;102749.91;4991957;28;20041;-48
2023/01/21 09:57:13;;;;;;;1.98;1.48;;;;;;;3.06;73.07;102756.78;4991635;28;20383;-48
2023/01/21 10:00:21;;;;;;;2.15;1.65;;;;;;;3.10;72.92;102758.22;5015515;28;20033;-51
2023/01/21 10:03:01;;;;;;;3.92;3.10;;;;;;;3.08;72.43;102765.44;5006010;28;20038;-48
2023/01/21 10:05:52;;;;;;;5.65;4.03;;;;;;;3.12;72.82;102761.63;5011553;28;20562;-50
2023/01/21 10:08:46;;;;;;;5.80;3.60;;;;;;;3.00;73.14;102766.00;5011501;28;20026;-51
2023/01/21 10:11:49;;;;;;;3.05;2.30;;;;;;;2.96;73.97;102764.53;5011418;28;20479;-48
2023/01/21 10:14:37;;;;;;;3.53;2.28;;;;;;;2.78;74.55;102766.69;5002666;28;20023;-50
2023/01/21 10:17:13;;;;;;;3.05;1.70;;;;;;;2.84;75.29;102765.41;4992282;28;20034;-48
2023/01/21 10:19:50;;;;;;;2.00;1.58;;;;;;;2.83;75.01;102772.50;5000063;28;20022;-50
2023/01/21 10:22:27;;;;;;;1.70;1.20;;;;;;;3.01;75.15;102765.03;5011061;28;20026;-49
2023/01/21 10:25:15;;;;;;;2.97;1.50;;;;;;;2.46;76.75;102766.28;5005473;28;20034;-48
2023/01/21 10:27:43;;;;;;;2.70;1.48;;;;;;;2.79;76.34;102768.34;5003704;28;20223;-51
2023/01/21 10:30:35;;;;;;;2.08;1.40;;;;;;;2.72;76.13;102774.16;4992819;28;20056;-49
2023/01/21 10:33:01;;;;;;;1.20;1.10;;;;;;;3.03;75.22;102772.84;4984486;28;20049;-48
2023/01/21 10:35:48;;;;;;;2.15;1.30;;;;;;;2.76;75.67;102762.44;4998185;28;20026;-49
2023/01/21 10:38:30;;;;;;;1.90;1.30;;;;;;;2.50;76.98;102775.69;4999503;28;20099;-49
2023/01/21 10:41:31;;;;;;;2.58;1.30;;;;;;;2.56;76.84;102769.13;5014495;28;20535;-50
2023/01/21 10:44:14;;;;;;;2.45;1.63;;;;;;;2.75;75.97;102773.97;5014506;28;20026;-48
2023/01/21 10:46:46;;;;;;;2.08;1.27;;;;;;;2.68;76.28;102772.72;5014191;28;20480;-49
2023/01/21 10:49:30;;;;;;;2.38;1.27;;;;;;;2.90;75.25;102768.44;5005282;28;20089;-48
2023/01/21 10:52:14;;;;;;;2.10;1.13;;;;;;;2.92;75.09;102771.81;5003538;28;20034;-51
2023/01/21 10:55:07;;;;;;;1.95;1.30;;;;;;;2.68;76.05;102765.63;5000023;28;20108;-49
2023/01/21 10:58:03;;;;;;;1.55;1.10;;;;;;;2.58;76.65;102769.84;4994813;28;20392;-51
2023/01/21 11:00:35;;;;;;;2.67;1.02;;;;;;;2.57;76.81;102754.94;4995210;28;20546;-50
2023/01/21 11:03:12;;;;;;;2.20;0.77;;;;;;;2.45;77.53;102759.28;4994409;28;20034;-47
2023/01/21 11:05:39;;;;;;;1.88;0.93;;;;;;;2.58;77.18;102748.72;4994799;28;20110;-48
2023/01/21 11:08:08;;;;;;;2.83;1.20;;;;;;;2.54;77.25;102745.41;4995558;28;20366;-48
2023/01/21 11:10:34;;;;;;;1.60;0.95;;;;;;;2.40;77.72;102744.72;4994878;28;20080;-49
2023/01/21 11:13:00;;;;;;;3.50;0.77;;;;;;;2.56;77.14;102750.63;4994581;28;20034;-48
2023/01/21 11:15:32;;;;;;;0.77;0.68;;;;;;;2.53;77.55;102746.38;4994614;28;20088;-48
2023/01/21 11:17:58;;;;;;;0.68;0.63;;;;;;;2.44;77.56;102752.28;5013950;28;20025;-47
2023/01/21 11:20:40;;;;;;;1.13;0.70;;;;;;;2.58;77.37;102752.19;5020832;28;20444;-48
2023/01/21 11:23:28;;;;;;;1.33;0.80;;;;;;;2.67;76.85;102753.38;5033801;28;20029;-50
2023/01/21 11:26:06;;;;;;;1.55;1.00;;;;;;;2.60;76.55;102747.63;5025071;28;20026;-47
2023/01/21 11:28:33;;;;;;;1.65;0.70;;;;;;;2.44;77.57;102754.09;4996196;28;20027;-48
2023/01/21 11:31:12;;;;;;;1.17;1.00;;;;;;;2.44;77.66;102757.56;4994608;28;20030;-48
2023/01/21 11:33:40;;;;;;;1.88;0.80;;;;;;;2.43;77.95;102758.53;4994915;28;20023;-48
2023/01/21 11:36:13;;;;;;;0.70;0.70;;;;;;;2.37;78.05;102757.16;4998429;28;20628;-48
2023/01/21 11:38:40;;;;;;;1.00;0.75;;;;;;;2.34;78.10;102760.03;5013519;28;20030;-48
2023/01/21 11:41:06;;;;;;;1.58;0.90;;;;;;;2.51;77.20;102752.75;5003953;28;20330;-48
2023/01/21 11:43:48;;;;;;;2.70;0.70;;;;;;;2.40;77.50;102757.91;5012248;28;20045;-48
2023/01/21 11:46:35;;;;;;;1.60;0.80;;;;;;;2.08;78.41;102753.03;5010415;28;20032;-47
2023/01/21 11:49:07;;;;;;;1.23;0.90;;;;;;;2.01;79.05;102754.41;5008992;28;20030;-48
2023/01/21 11:51:35;;;;;;;3.00;0.80;;;;;;;2.06;78.74;102749.66;4997865;28;20038;-48